sensor_id;sensor_type;location;lat;lon;timestamp;pressure;altitude;pressure_sealevel;temperature;humidity
63285;BME280;49409;55.708;37.522;2022-07-18T00:00:13;99345.59;;;20.13;58.59
63285;BME280;49409;55.708;37.522;2022-07-18T00:02:39;99340.97;;;20.10;58.56
63285;BME280;49409;55.708;37.522;2022-07-18T00:05:06;99349.91;;;20.14;58.83
63285;BME280;49409;55.708;37.522;2022-07-18T00:07:32;99350.97;;;20.16;58.83
63285;BME280;49409;55.708;37.522;2022-07-18T00:09:57;99339.16;;;20.07;58.38
63285;BME280;49409;55.708;37.522;2022-07-18T00:12:23;99356.56;;;20.16;58.27
63285;BME280;49409;55.708;37.522;2022-07-18T00:14:49;99339.16;;;20.07;58.42
63285;BME280;49409;55.708;37.522;2022-07-18T00:17:14;99344.59;;;20.16;57.74
63285;BME280;49409;55.708;37.522;2022-07-18T00:19:40;99346.16;;;20.17;57.66
63285;BME280;49409;55.708;37.522;2022-07-18T00:22:05;99339.72;;;20.11;58.13
63285;BME280;49409;55.708;37.522;2022-07-18T00:24:31;99327.69;;;20.05;57.84
63285;BME280;49409;55.708;37.522;2022-07-18T00:26:58;99328.25;;;20.09;57.55
63285;BME280;49409;55.708;37.522;2022-07-18T00:29:25;99337.88;;;20.08;57.35
63285;BME280;49409;55.708;37.522;2022-07-18T00:31:50;99349.72;;;20.17;57.40
63285;BME280;49409;55.708;37.522;2022-07-18T00:34:16;99328.16;;;20.03;57.28
63285;BME280;49409;55.708;37.522;2022-07-18T00:36:42;99329.97;;;20.06;57.10
63285;BME280;49409;55.708;37.522;2022-07-18T00:39:07;99325.38;;;20.03;57.41
63285;BME280;49409;55.708;37.522;2022-07-18T00:41:33;99314.59;;;19.96;56.84
63285;BME280;49409;55.708;37.522;2022-07-18T00:43:58;99347.69;;;20.18;56.97
63285;BME280;49409;55.708;37.522;2022-07-18T00:46:25;99345.19;;;20.20;56.70
63285;BME280;49409;55.708;37.522;2022-07-18T00:48:51;99342.88;;;20.18;57.45
63285;BME280;49409;55.708;37.522;2022-07-18T00:51:17;99340.84;;;20.19;57.75
63285;BME280;49409;55.708;37.522;2022-07-18T00:53:45;99331.63;;;20.13;57.81
63285;BME280;49409;55.708;37.522;2022-07-18T00:56:12;99345.19;;;20.20;57.84
63285;BME280;49409;55.708;37.522;2022-07-18T00:58:38;99328.25;;;20.09;57.83
63285;BME280;49409;55.708;37.522;2022-07-18T01:01:04;99347.41;;;20.16;57.63
63285;BME280;49409;55.708;37.522;2022-07-18T01:03:48;99331.34;;;20.11;57.43
63285;BME280;49409;55.708;37.522;2022-07-18T01:06:14;99343.09;;;20.15;58.02
63285;BME280;49409;55.708;37.522;2022-07-18T01:08:42;99329.41;;;20.02;58.20
63285;BME280;49409;55.708;37.522;2022-07-18T01:11:07;99335.38;;;20.10;58.90
63285;BME280;49409;55.708;37.522;2022-07-18T01:13:33;99336.72;;;20.14;58.43
63285;BME280;49409;55.708;37.522;2022-07-18T01:15:59;99320.34;;;20.07;58.30
63285;BME280;49409;55.708;37.522;2022-07-18T01:18:25;99331.91;;;20.15;58.61
63285;BME280;49409;55.708;37.522;2022-07-18T01:20:51;99315.72;;;20.04;58.08
63285;BME280;49409;55.708;37.522;2022-07-18T01:23:17;99299.38;;;19.97;58.73
63285;BME280;49409;55.708;37.522;2022-07-18T01:25:43;99330.63;;;20.16;58.73
63285;BME280;49409;55.708;37.522;2022-07-18T01:28:09;99334.97;;;20.17;58.59
63285;BME280;49409;55.708;37.522;2022-07-18T01:30:34;99322.25;;;20.16;58.87
63285;BME280;49409;55.708;37.522;2022-07-18T01:33:01;99330.91;;;20.18;57.95
63285;BME280;49409;55.708;37.522;2022-07-18T01:35:29;99327.84;;;20.16;57.87
63285;BME280;49409;55.708;37.522;2022-07-18T01:37:57;99323.53;;;20.15;58.20
63285;BME280;49409;55.708;37.522;2022-07-18T01:40:24;99326.88;;;20.19;58.34
63285;BME280;49409;55.708;37.522;2022-07-18T01:42:50;99304.66;;;20.10;58.17
63285;BME280;49409;55.708;37.522;2022-07-18T01:45:16;99297.91;;;20.01;58.24
63285;BME280;49409;55.708;37.522;2022-07-18T01:47:42;99311.09;;;20.16;58.68
63285;BME280;49409;55.708;37.522;2022-07-18T01:50:09;99308.00;;;20.14;58.69
63285;BME280;49409;55.708;37.522;2022-07-18T01:52:35;99281.06;;;19.96;58.77
63285;BME280;49409;55.708;37.522;2022-07-18T01:55:01;99310.13;;;20.19;58.71
63285;BME280;49409;55.708;37.522;2022-07-18T01:57:27;99313.59;;;20.14;59.16
63285;BME280;49409;55.708;37.522;2022-07-18T01:59:52;99321.88;;;20.23;59.00
63285;BME280;49409;55.708;37.522;2022-07-18T02:02:18;99314.72;;;20.22;58.93
63285;BME280;49409;55.708;37.522;2022-07-18T02:04:43;99316.28;;;20.23;59.38
63285;BME280;49409;55.708;37.522;2022-07-18T02:07:29;99307.06;;;20.17;58.85
63285;BME280;49409;55.708;37.522;2022-07-18T02:09:55;99311.47;;;20.24;59.07
63285;BME280;49409;55.708;37.522;2022-07-18T02:12:20;99311.25;;;20.27;59.29
63285;BME280;49409;55.708;37.522;2022-07-18T02:14:46;99312.81;;;20.28;58.70
63285;BME280;49409;55.708;37.522;2022-07-18T02:17:12;99297.41;;;20.18;58.65
63285;BME280;49409;55.708;37.522;2022-07-18T02:19:37;99277.78;;;20.12;59.33
63285;BME280;49409;55.708;37.522;2022-07-18T02:22:03;99303.72;;;20.33;59.39
63285;BME280;49409;55.708;37.522;2022-07-18T02:24:28;99299.31;;;20.27;59.59
63285;BME280;49409;55.708;37.522;2022-07-18T02:26:54;99306.25;;;20.31;59.05
63285;BME280;49409;55.708;37.522;2022-07-18T02:29:19;99297.56;;;20.29;59.15
63285;BME280;49409;55.708;37.522;2022-07-18T02:31:45;99306.31;;;20.37;58.72
63285;BME280;49409;55.708;37.522;2022-07-18T02:34:10;99286.41;;;20.29;59.05
63285;BME280;49409;55.708;37.522;2022-07-18T02:36:37;99314.31;;;20.44;58.86
63285;BME280;49409;55.708;37.522;2022-07-18T02:39:04;99296.91;;;20.34;58.26
63285;BME280;49409;55.708;37.522;2022-07-18T02:41:29;99287.38;;;20.26;56.93
63285;BME280;49409;55.708;37.522;2022-07-18T02:43:55;99308.72;;;20.44;57.41
63285;BME280;49409;55.708;37.522;2022-07-18T02:46:21;99301.50;;;20.37;57.67
63285;BME280;49409;55.708;37.522;2022-07-18T02:48:46;99304.75;;;20.51;58.04
63285;BME280;49409;55.708;37.522;2022-07-18T02:51:12;99289.63;;;20.43;56.79
63285;BME280;49409;55.708;37.522;2022-07-18T02:53:37;99292.44;;;20.43;56.50
63285;BME280;49409;55.708;37.522;2022-07-18T02:56:03;99296.00;;;20.43;56.39
63285;BME280;49409;55.708;37.522;2022-07-18T02:58:28;99296.34;;;20.51;57.10
63285;BME280;49409;55.708;37.522;2022-07-18T03:00:54;99294.03;;;20.49;57.19
63285;BME280;49409;55.708;37.522;2022-07-18T03:03:19;99292.09;;;20.55;56.45
63285;BME280;49409;55.708;37.522;2022-07-18T03:05:45;99308.28;;;20.66;55.65
63285;BME280;49409;55.708;37.522;2022-07-18T03:08:10;99300.56;;;20.61;54.88
63285;BME280;49409;55.708;37.522;2022-07-18T03:10:36;99312.88;;;20.69;55.16
63285;BME280;49409;55.708;37.522;2022-07-18T03:13:01;99300.19;;;20.68;55.07
63285;BME280;49409;55.708;37.522;2022-07-18T03:15:27;99303.25;;;20.70;54.39
63285;BME280;49409;55.708;37.522;2022-07-18T03:17:52;99307.53;;;20.66;54.62
63285;BME280;49409;55.708;37.522;2022-07-18T03:20:18;99311.09;;;20.66;54.47
63285;BME280;49409;55.708;37.522;2022-07-18T03:22:44;99315.69;;;20.69;54.03
63285;BME280;49409;55.708;37.522;2022-07-18T03:25:09;99299.63;;;20.64;54.25
63285;BME280;49409;55.708;37.522;2022-07-18T03:27:35;99313.03;;;20.80;54.31
63285;BME280;49409;55.708;37.522;2022-07-18T03:30:00;99310.53;;;20.83;53.88
63285;BME280;49409;55.708;37.522;2022-07-18T03:32:26;99306.47;;;20.84;53.58
63285;BME280;49409;55.708;37.522;2022-07-18T03:34:51;99295.97;;;20.78;53.79
63285;BME280;49409;55.708;37.522;2022-07-18T03:37:17;99309.13;;;20.93;54.84
63285;BME280;49409;55.708;37.522;2022-07-18T03:39:42;99269.69;;;20.70;55.80
63285;BME280;49409;55.708;37.522;2022-07-18T03:42:08;99311.78;;;21.02;54.37
63285;BME280;49409;55.708;37.522;2022-07-18T03:44:33;99305.06;;;20.94;54.07
63285;BME280;49409;55.708;37.522;2022-07-18T03:46:59;99291.78;;;20.89;53.83
63285;BME280;49409;55.708;37.522;2022-07-18T03:49:24;99308.50;;;21.04;53.71
63285;BME280;49409;55.708;37.522;2022-07-18T03:51:50;99312.53;;;21.03;53.50
63285;BME280;49409;55.708;37.522;2022-07-18T03:54:15;99306.19;;;21.02;52.97
63285;BME280;49409;55.708;37.522;2022-07-18T03:56:41;99287.28;;;20.97;52.70
63285;BME280;49409;55.708;37.522;2022-07-18T03:59:06;99293.13;;;20.93;52.40
63285;BME280;49409;55.708;37.522;2022-07-18T04:01:32;99284.38;;;20.86;52.51
63285;BME280;49409;55.708;37.522;2022-07-18T04:03:58;99307.28;;;21.10;52.30
63285;BME280;49409;55.708;37.522;2022-07-18T04:06:24;99308.31;;;21.13;52.46
63285;BME280;49409;55.708;37.522;2022-07-18T04:08:49;99310.91;;;21.16;52.81
63285;BME280;49409;55.708;37.522;2022-07-18T04:11:15;99309.19;;;21.19;51.76
63285;BME280;49409;55.708;37.522;2022-07-18T04:13:40;99315.81;;;21.22;52.09
63285;BME280;49409;55.708;37.522;2022-07-18T04:16:06;99293.31;;;21.10;51.87
63285;BME280;49409;55.708;37.522;2022-07-18T04:18:32;99294.13;;;21.16;51.85
63285;BME280;49409;55.708;37.522;2022-07-18T04:20:57;99318.75;;;21.33;51.07
63285;BME280;49409;55.708;37.522;2022-07-18T04:23:23;99319.78;;;21.35;51.33
63285;BME280;49409;55.708;37.522;2022-07-18T04:25:48;99302.38;;;21.26;51.34
63285;BME280;49409;55.708;37.522;2022-07-18T04:28:14;99306.41;;;21.25;51.05
63285;BME280;49409;55.708;37.522;2022-07-18T04:30:41;99327.69;;;21.37;51.18
63285;BME280;49409;55.708;37.522;2022-07-18T04:33:08;99305.19;;;21.26;51.21
63285;BME280;49409;55.708;37.522;2022-07-18T04:35:34;99317.75;;;21.36;50.73
63285;BME280;49409;55.708;37.522;2022-07-18T04:38:05;99304.97;;;21.29;51.14
63285;BME280;49409;55.708;37.522;2022-07-18T04:40:31;99304.03;;;21.38;50.98
63285;BME280;49409;55.708;37.522;2022-07-18T04:42:57;99308.47;;;21.45;51.11
63285;BME280;49409;55.708;37.522;2022-07-18T04:45:22;99305.22;;;21.52;51.15
63285;BME280;49409;55.708;37.522;2022-07-18T04:47:52;99306.69;;;21.73;50.74
63285;BME280;49409;55.708;37.522;2022-07-18T04:50:20;99310.19;;;21.94;52.37
63285;BME280;49409;55.708;37.522;2022-07-18T04:52:47;99302.13;;;22.08;50.16
63285;BME280;49409;55.708;37.522;2022-07-18T04:55:15;99292.75;;;22.16;50.22
63285;BME280;49409;55.708;37.522;2022-07-18T04:57:40;99303.28;;;22.27;49.76
63285;BME280;49409;55.708;37.522;2022-07-18T05:00:14;99293.13;;;22.30;50.48
63285;BME280;49409;55.708;37.522;2022-07-18T05:02:46;99296.50;;;22.40;50.52
63285;BME280;49409;55.708;37.522;2022-07-18T05:05:14;99295.75;;;22.45;50.39
63285;BME280;49409;55.708;37.522;2022-07-18T05:07:41;99280.72;;;22.42;49.79
63285;BME280;49409;55.708;37.522;2022-07-18T05:10:09;99284.53;;;22.45;50.36
63285;BME280;49409;55.708;37.522;2022-07-18T05:12:36;99302.47;;;22.58;51.02
63285;BME280;49409;55.708;37.522;2022-07-18T05:15:04;99303.78;;;22.63;51.01
63285;BME280;49409;55.708;37.522;2022-07-18T05:17:31;99304.53;;;22.64;50.29
63285;BME280;49409;55.708;37.522;2022-07-18T05:19:56;99304.28;;;22.62;50.41
63285;BME280;49409;55.708;37.522;2022-07-18T05:22:22;99298.91;;;22.58;50.13
63285;BME280;49409;55.708;37.522;2022-07-18T05:24:47;99306.59;;;22.63;49.61
63285;BME280;49409;55.708;37.522;2022-07-18T05:27:13;99313.75;;;22.70;50.69
63285;BME280;49409;55.708;37.522;2022-07-18T05:29:38;99296.16;;;22.69;51.15
63285;BME280;49409;55.708;37.522;2022-07-18T05:32:04;99306.66;;;22.80;50.89
63285;BME280;49409;55.708;37.522;2022-07-18T05:34:30;99317.91;;;22.86;51.88
63285;BME280;49409;55.708;37.522;2022-07-18T05:36:56;99321.50;;;22.92;51.75
63285;BME280;49409;55.708;37.522;2022-07-18T05:39:21;99300.53;;;22.82;51.98
63285;BME280;49409;55.708;37.522;2022-07-18T05:41:47;99300.53;;;22.82;52.39
63285;BME280;49409;55.708;37.522;2022-07-18T05:44:12;99310.78;;;22.96;53.07
63285;BME280;49409;55.708;37.522;2022-07-18T05:46:38;99307.53;;;23.03;51.37
63285;BME280;49409;55.708;37.522;2022-07-18T05:49:03;99296.09;;;23.12;53.71
63285;BME280;49409;55.708;37.522;2022-07-18T05:51:29;99292.53;;;23.17;51.64
63285;BME280;49409;55.708;37.522;2022-07-18T05:53:54;99281.34;;;23.29;51.27
63285;BME280;49409;55.708;37.522;2022-07-18T05:56:20;99290.03;;;23.42;50.12
63285;BME280;49409;55.708;37.522;2022-07-18T05:58:45;99270.38;;;23.42;48.53
63285;BME280;49409;55.708;37.522;2022-07-18T06:01:11;99285.44;;;23.62;48.82
63285;BME280;49409;55.708;37.522;2022-07-18T06:03:37;99279.34;;;23.69;48.26
63285;BME280;49409;55.708;37.522;2022-07-18T06:06:02;99260.97;;;23.79;46.78
63285;BME280;49409;55.708;37.522;2022-07-18T06:08:28;99268.34;;;24.10;45.54
63285;BME280;49409;55.708;37.522;2022-07-18T06:10:53;99243.81;;;24.17;45.06
63285;BME280;49409;55.708;37.522;2022-07-18T06:13:19;99262.63;;;24.50;45.59
63285;BME280;49409;55.708;37.522;2022-07-18T06:15:44;99256.16;;;24.78;44.67
63285;BME280;49409;55.708;37.522;2022-07-18T06:18:10;99259.88;;;25.08;42.72
63285;BME280;49409;55.708;37.522;2022-07-18T06:20:35;99261.53;;;25.34;43.30
63285;BME280;49409;55.708;37.522;2022-07-18T06:23:01;99238.50;;;25.30;40.95
63285;BME280;49409;55.708;37.522;2022-07-18T06:25:26;99260.41;;;25.48;42.22
63285;BME280;49409;55.708;37.522;2022-07-18T06:27:52;99256.78;;;25.53;40.84
63285;BME280;49409;55.708;37.522;2022-07-18T06:30:17;99255.44;;;25.60;40.73
63285;BME280;49409;55.708;37.522;2022-07-18T06:32:43;99231.66;;;25.56;40.32
63285;BME280;49409;55.708;37.522;2022-07-18T06:35:09;99253.06;;;25.70;40.37
63285;BME280;49409;55.708;37.522;2022-07-18T06:37:35;99234.69;;;25.63;39.32
63285;BME280;49409;55.708;37.522;2022-07-18T06:40:00;99253.06;;;25.70;39.91
63285;BME280;49409;55.708;37.522;2022-07-18T06:42:26;99236.22;;;25.59;40.11
63285;BME280;49409;55.708;37.522;2022-07-18T06:44:51;99232.78;;;25.41;39.34
63285;BME280;49409;55.708;37.522;2022-07-18T06:47:17;99247.69;;;25.36;39.38
63285;BME280;49409;55.708;37.522;2022-07-18T06:49:42;99241.56;;;25.32;40.24
63285;BME280;49409;55.708;37.522;2022-07-18T06:52:08;99236.72;;;25.27;39.47
63285;BME280;49409;55.708;37.522;2022-07-18T06:54:37;99226.88;;;25.03;39.44
63285;BME280;49409;55.708;37.522;2022-07-18T06:57:04;99247.53;;;25.11;40.87
63285;BME280;49409;55.708;37.522;2022-07-18T06:59:32;99239.59;;;25.16;41.73
63285;BME280;49409;55.708;37.522;2022-07-18T07:01:58;99233.94;;;25.16;40.92
63285;BME280;49409;55.708;37.522;2022-07-18T07:04:23;99242.59;;;25.29;42.14
63285;BME280;49409;55.708;37.522;2022-07-18T07:06:49;99224.22;;;25.17;40.43
63285;BME280;49409;55.708;37.522;2022-07-18T07:09:14;99242.88;;;25.25;39.83
63285;BME280;49409;55.708;37.522;2022-07-18T07:11:40;99207.47;;;24.94;39.22
63285;BME280;49409;55.708;37.522;2022-07-18T07:14:05;99229.41;;;25.07;41.17
63285;BME280;49409;55.708;37.522;2022-07-18T07:16:31;99247.50;;;25.23;40.70
63285;BME280;49409;55.708;37.522;2022-07-18T07:18:56;99243.44;;;25.18;40.39
63285;BME280;49409;55.708;37.522;2022-07-18T07:21:22;99243.47;;;25.12;40.89
63285;BME280;49409;55.708;37.522;2022-07-18T07:23:47;99224.50;;;25.13;40.96
63285;BME280;49409;55.708;37.522;2022-07-18T07:26:13;99224.72;;;25.21;40.83
63285;BME280;49409;55.708;37.522;2022-07-18T07:28:38;99230.31;;;25.32;40.14
63285;BME280;49409;55.708;37.522;2022-07-18T07:31:04;99239.47;;;25.38;40.39
63285;BME280;49409;55.708;37.522;2022-07-18T07:33:30;99212.44;;;25.24;40.63
63285;BME280;49409;55.708;37.522;2022-07-18T07:35:56;99223.59;;;25.35;40.36
63285;BME280;49409;55.708;37.522;2022-07-18T07:38:22;99241.28;;;25.36;40.88
63285;BME280;49409;55.708;37.522;2022-07-18T07:40:53;99226.91;;;25.39;40.91
63285;BME280;49409;55.708;37.522;2022-07-18T07:43:18;99243.25;;;25.46;40.76
63285;BME280;49409;55.708;37.522;2022-07-18T07:45:48;99231.03;;;25.38;40.71
63285;BME280;49409;55.708;37.522;2022-07-18T07:48:15;99247.41;;;25.40;41.43
63285;BME280;49409;55.708;37.522;2022-07-18T07:50:41;99248.16;;;25.40;42.14
63285;BME280;49409;55.708;37.522;2022-07-18T07:53:06;99228.50;;;25.35;42.45
63285;BME280;49409;55.708;37.522;2022-07-18T07:55:32;99229.94;;;25.47;40.97
63285;BME280;49409;55.708;37.522;2022-07-18T07:57:58;99231.44;;;25.53;41.22
63285;BME280;49409;55.708;37.522;2022-07-18T08:00:23;99223.44;;;25.58;40.23
63285;BME280;49409;55.708;37.522;2022-07-18T08:02:51;99202.19;;;25.57;41.11
63285;BME280;49409;55.708;37.522;2022-07-18T08:05:17;99211.50;;;25.76;39.20
63285;BME280;49409;55.708;37.522;2022-07-18T08:07:42;99205.63;;;25.74;39.76
63285;BME280;49409;55.708;37.522;2022-07-18T08:10:08;99188.72;;;25.74;41.08
63285;BME280;49409;55.708;37.522;2022-07-18T08:12:33;99200.34;;;25.89;41.69
63285;BME280;49409;55.708;37.522;2022-07-18T08:14:59;99206.72;;;25.96;39.93
63285;BME280;49409;55.708;37.522;2022-07-18T08:17:24;99204.16;;;25.98;39.13
63285;BME280;49409;55.708;37.522;2022-07-18T08:19:50;99191.94;;;25.84;37.92
63285;BME280;49409;55.708;37.522;2022-07-18T08:22:15;99197.50;;;25.95;38.15
63285;BME280;49409;55.708;37.522;2022-07-18T08:24:43;99187.81;;;25.85;38.48
63285;BME280;49409;55.708;37.522;2022-07-18T08:27:08;99177.81;;;25.89;37.80
63285;BME280;49409;55.708;37.522;2022-07-18T08:29:35;99183.44;;;25.89;38.06
63285;BME280;49409;55.708;37.522;2022-07-18T08:32:00;99179.28;;;25.96;37.87
63285;BME280;49409;55.708;37.522;2022-07-18T08:34:26;99163.72;;;25.89;39.04
63285;BME280;49409;55.708;37.522;2022-07-18T08:36:51;99184.06;;;26.07;38.04
63285;BME280;49409;55.708;37.522;2022-07-18T08:39:17;99193.69;;;26.17;38.69
63285;BME280;49409;55.708;37.522;2022-07-18T08:41:44;99185.09;;;26.04;37.67
63285;BME280;49409;55.708;37.522;2022-07-18T08:44:13;99179.09;;;25.88;37.05
63285;BME280;49409;55.708;37.522;2022-07-18T08:46:45;99178.53;;;25.96;38.22
63285;BME280;49409;55.708;37.522;2022-07-18T08:49:14;99183.09;;;25.99;38.58
63285;BME280;49409;55.708;37.522;2022-07-18T08:51:41;99172.78;;;26.07;37.51
63285;BME280;49409;55.708;37.522;2022-07-18T08:54:08;99174.00;;;26.11;36.85
63285;BME280;49409;55.708;37.522;2022-07-18T08:56:33;99185.00;;;26.15;36.76
63285;BME280;49409;55.708;37.522;2022-07-18T08:59:02;99180.06;;;26.21;37.55
63285;BME280;49409;55.708;37.522;2022-07-18T09:01:29;99169.00;;;25.99;36.33
63285;BME280;49409;55.708;37.522;2022-07-18T09:03:55;99166.78;;;25.91;36.23
63285;BME280;49409;55.708;37.522;2022-07-18T09:06:47;99184.53;;;26.11;37.12
63285;BME280;49409;55.708;37.522;2022-07-18T09:09:15;99177.63;;;26.06;36.54
63285;BME280;49409;55.708;37.522;2022-07-18T09:11:51;99176.41;;;26.26;37.85
63285;BME280;49409;55.708;37.522;2022-07-18T09:17:01;99177.59;;;26.12;37.50
63285;BME280;49409;55.708;37.522;2022-07-18T09:19:27;99173.38;;;26.00;36.89
63285;BME280;49409;55.708;37.522;2022-07-18T09:21:52;99171.94;;;25.87;37.35
63285;BME280;49409;55.708;37.522;2022-07-18T09:24:18;99168.69;;;25.78;36.96
63285;BME280;49409;55.708;37.522;2022-07-18T09:26:43;99169.91;;;25.58;36.82
63285;BME280;49409;55.708;37.522;2022-07-18T09:29:15;99164.13;;;25.44;37.48
63285;BME280;49409;55.708;37.522;2022-07-18T09:31:48;99126.63;;;25.30;37.88
63285;BME280;49409;55.708;37.522;2022-07-18T09:34:14;99163.44;;;25.63;38.74
63285;BME280;49409;55.708;37.522;2022-07-18T09:36:56;99156.25;;;25.67;38.15
63285;BME280;49409;55.708;37.522;2022-07-18T09:39:23;99150.63;;;25.67;39.47
63285;BME280;49409;55.708;37.522;2022-07-18T09:41:49;99164.06;;;25.80;36.84
63285;BME280;49409;55.708;37.522;2022-07-18T09:44:18;99153.53;;;25.81;37.68
63285;BME280;49409;55.708;37.522;2022-07-18T09:47:03;99140.13;;;25.92;37.58
63285;BME280;49409;55.708;37.522;2022-07-18T09:49:33;99145.88;;;25.81;36.98
63285;BME280;49409;55.708;37.522;2022-07-18T09:52:07;99145.75;;;25.68;36.75
63285;BME280;49409;55.708;37.522;2022-07-18T09:54:38;99147.72;;;25.73;37.14
63285;BME280;49409;55.708;37.522;2022-07-18T09:57:04;99128.84;;;25.68;37.04
63285;BME280;49409;55.708;37.522;2022-07-18T09:59:30;99142.44;;;25.88;37.42
63285;BME280;49409;55.708;37.522;2022-07-18T10:01:56;99122.97;;;25.90;36.82
63285;BME280;49409;55.708;37.522;2022-07-18T10:04:21;99116.47;;;26.01;36.37
63285;BME280;49409;55.708;37.522;2022-07-18T10:06:47;99134.94;;;26.21;36.24
63285;BME280;49409;55.708;37.522;2022-07-18T10:09:13;99115.66;;;26.25;36.14
63285;BME280;49409;55.708;37.522;2022-07-18T10:11:40;99106.19;;;26.23;36.11
63285;BME280;49409;55.708;37.522;2022-07-18T10:14:07;99117.47;;;26.42;35.83
63285;BME280;49409;55.708;37.522;2022-07-18T10:16:35;99093.69;;;26.37;35.14
63285;BME280;49409;55.708;37.522;2022-07-18T10:19:00;99126.78;;;26.56;34.80
63285;BME280;49409;55.708;37.522;2022-07-18T10:21:26;99141.66;;;26.56;35.37
63285;BME280;49409;55.708;37.522;2022-07-18T10:23:55;99122.50;;;26.49;34.79
63285;BME280;49409;55.708;37.522;2022-07-18T10:31:24;99128.94;;;26.68;35.24
63285;BME280;49409;55.708;37.522;2022-07-18T10:33:50;99120.34;;;26.61;36.51
63285;BME280;49409;55.708;37.522;2022-07-18T10:36:21;99118.25;;;26.61;36.27
63285;BME280;49409;55.708;37.522;2022-07-18T10:39:09;99114.56;;;26.85;35.90
63285;BME280;49409;55.708;37.522;2022-07-18T11:02:32;99093.25;;;26.33;35.31
63285;BME280;49409;55.708;37.522;2022-07-18T11:04:58;99097.94;;;26.06;35.41
63285;BME280;49409;55.708;37.522;2022-07-18T11:07:24;99105.13;;;26.07;35.90
63285;BME280;49409;55.708;37.522;2022-07-18T11:09:50;99084.19;;;25.97;35.88
63285;BME280;49409;55.708;37.522;2022-07-18T11:22:52;99087.75;;;26.79;36.06
63285;BME280;49409;55.708;37.522;2022-07-18T11:25:19;99087.59;;;26.33;35.71
63285;BME280;49409;55.708;37.522;2022-07-18T11:27:45;99084.53;;;26.12;37.11
63285;BME280;49409;55.708;37.522;2022-07-18T11:30:23;99074.34;;;26.09;36.57
63285;BME280;49409;55.708;37.522;2022-07-18T11:32:50;99091.84;;;26.02;37.11
63285;BME280;49409;55.708;37.522;2022-07-18T11:35:21;99093.38;;;26.03;37.16
63285;BME280;49409;55.708;37.522;2022-07-18T11:37:49;99087.81;;;25.97;36.60
63285;BME280;49409;55.708;37.522;2022-07-18T11:40:15;99087.88;;;25.91;36.93
63285;BME280;49409;55.708;37.522;2022-07-18T11:42:42;99071.63;;;25.73;36.46
63285;BME280;49409;55.708;37.522;2022-07-18T11:45:09;99086.91;;;25.83;37.03
63285;BME280;49409;55.708;37.522;2022-07-18T11:47:54;99051.03;;;25.59;37.30
63285;BME280;49409;55.708;37.522;2022-07-18T11:50:36;99072.25;;;25.66;36.71
63285;BME280;49409;55.708;37.522;2022-07-18T11:53:02;99084.81;;;25.40;37.07
63285;BME280;49409;55.708;37.522;2022-07-18T11:55:36;99083.63;;;25.30;37.34
63285;BME280;49409;55.708;37.522;2022-07-18T11:58:08;99086.50;;;25.19;37.43
63285;BME280;49409;55.708;37.522;2022-07-18T12:00:33;99064.19;;;24.96;37.41
63285;BME280;49409;55.708;37.522;2022-07-18T12:02:59;99075.44;;;24.96;38.06
63285;BME280;49409;55.708;37.522;2022-07-18T12:05:32;99057.50;;;24.99;38.57
63285;BME280;49409;55.708;37.522;2022-07-18T12:07:58;99062.16;;;24.91;38.74
63285;BME280;49409;55.708;37.522;2022-07-18T12:10:24;99066.38;;;24.79;38.61
63285;BME280;49409;55.708;37.522;2022-07-18T12:12:49;99046.97;;;24.69;39.30
63285;BME280;49409;55.708;37.522;2022-07-18T12:15:15;99058.78;;;24.62;39.07
63285;BME280;49409;55.708;37.522;2022-07-18T12:17:47;99061.53;;;25.04;39.53
63285;BME280;49409;55.708;37.522;2022-07-18T12:20:20;99062.75;;;25.14;38.57
63285;BME280;49409;55.708;37.522;2022-07-18T12:23:09;99069.22;;;25.33;38.65
63285;BME280;49409;55.708;37.522;2022-07-18T12:25:57;99070.53;;;25.32;38.89
63285;BME280;49409;55.708;37.522;2022-07-18T12:28:24;99053.22;;;25.23;39.13
63285;BME280;49409;55.708;37.522;2022-07-18T12:30:51;99067.72;;;25.32;38.48
63285;BME280;49409;55.708;37.522;2022-07-18T12:33:16;99064.66;;;25.00;38.57
63285;BME280;49409;55.708;37.522;2022-07-18T12:35:42;99084.13;;;24.98;38.69
63285;BME280;49409;55.708;37.522;2022-07-18T12:38:13;99086.41;;;25.00;38.63
63285;BME280;49409;55.708;37.522;2022-07-18T12:43:32;99092.72;;;24.76;37.66
63285;BME280;49409;55.708;37.522;2022-07-18T12:46:01;99102.84;;;24.54;37.82
63285;BME280;49409;55.708;37.522;2022-07-18T12:48:28;99096.19;;;24.57;37.83
63285;BME280;49409;55.708;37.522;2022-07-18T12:51:05;99083.94;;;24.49;37.88
63285;BME280;49409;55.708;37.522;2022-07-18T12:53:34;99086.44;;;24.58;38.13
63285;BME280;49409;55.708;37.522;2022-07-18T12:56:00;99101.28;;;24.59;38.67
63285;BME280;49409;55.708;37.522;2022-07-18T12:58:26;99098.41;;;24.64;38.79
63285;BME280;49409;55.708;37.522;2022-07-18T13:00:51;99087.00;;;24.51;38.67
63285;BME280;49409;55.708;37.522;2022-07-18T13:03:17;99077.28;;;24.52;39.17
63285;BME280;49409;55.708;37.522;2022-07-18T13:05:43;99092.03;;;24.64;39.21
63285;BME280;49409;55.708;37.522;2022-07-18T13:08:09;99085.44;;;24.50;39.10
63285;BME280;49409;55.708;37.522;2022-07-18T13:10:37;99097.91;;;24.66;39.86
63285;BME280;49409;55.708;37.522;2022-07-18T13:13:05;99079.78;;;24.61;39.63
63285;BME280;49409;55.708;37.522;2022-07-18T13:15:31;99081.78;;;24.66;39.76
63285;BME280;49409;55.708;37.522;2022-07-18T13:17:57;99083.06;;;24.65;39.64
63285;BME280;49409;55.708;37.522;2022-07-18T13:20:23;99082.84;;;24.63;39.83
63285;BME280;49409;55.708;37.522;2022-07-18T13:22:50;99083.94;;;24.49;39.93
63285;BME280;49409;55.708;37.522;2022-07-18T13:25:16;99074.56;;;24.35;40.18
63285;BME280;49409;55.708;37.522;2022-07-18T13:27:42;99056.50;;;24.19;41.10
63285;BME280;49409;55.708;37.522;2022-07-18T13:30:08;99074.66;;;24.12;40.43